Terminal Aerodrome Forecast
Issued by NWS Amarillo, TX

Home | Current Version | Previous Version | Text Only | Print | Product List | Glossary On
Versions: 1 2 3 4 5 6 7 8 9 10 11 12 13 14
000
FTUS44 KAMA 272300 AAB
TAFDHT
TAF AMD
KDHT 272301Z 2723/2818 20016KT P6SM SCT070 SCT250
      TEMPO 2723/2801 20020G30KT
     FM280100 17010KT P6SM BKN080
     FM280900 18015KT P6SM VCSH SCT009 BKN015=

USA.gov is the U.S. government's official web portal to all federal, state and local government web resources and services.